createdAt,value
2023-02-22T00:01:28.430Z,0.43
2023-02-22T00:04:35.681Z,1.14
2023-02-22T00:07:44.791Z,1.56
2023-02-22T00:10:52.658Z,1.84
2023-02-22T00:14:00.231Z,1.43
2023-02-22T00:17:06.538Z,1.33
2023-02-22T00:20:17.337Z,1.20
2023-02-22T00:23:25.518Z,1.68
2023-02-22T00:26:35.147Z,0.46
2023-02-22T00:29:47.520Z,0.75
2023-02-22T00:32:56.043Z,0.98
2023-02-22T00:36:02.860Z,0.74
2023-02-22T00:39:09.641Z,0.62
2023-02-22T00:42:16.231Z,0.74
2023-02-22T00:45:27.290Z,0.87
2023-02-22T00:48:33.482Z,0.57
2023-02-22T00:51:40.358Z,0.76
2023-02-22T00:54:46.850Z,0.28
2023-02-22T00:57:53.308Z,0.72
2023-02-22T01:01:01.357Z,0.59
2023-02-22T01:04:07.821Z,1.36
2023-02-22T01:07:14.477Z,0.94
2023-02-22T01:10:22.976Z,1.26
2023-02-22T01:13:29.449Z,1.40
2023-02-22T01:16:37.386Z,1.00
2023-02-22T01:19:43.957Z,0.68
2023-02-22T01:22:53.353Z,0.68
2023-02-22T01:25:59.981Z,0.57
2023-02-22T01:29:06.285Z,0.26
2023-02-22T01:32:14.042Z,0.44
2023-02-22T01:35:24.516Z,0.08
2023-02-22T01:38:31.089Z,-0.09
2023-02-22T01:41:37.384Z,0.05
2023-02-22T01:44:43.788Z,0.86
2023-02-22T01:47:51.361Z,0.32
2023-02-22T01:51:01.020Z,0.58
2023-02-22T01:54:13.824Z,-0.44
2023-02-22T01:57:24.209Z,-0.70
2023-02-22T02:00:31.116Z,-0.42
2023-02-22T02:03:41.034Z,-0.62
2023-02-22T02:06:48.476Z,-0.29
2023-02-22T02:09:58.841Z,0.14
2023-02-22T02:13:05.230Z,-0.08
2023-02-22T02:16:11.930Z,0.06
2023-02-22T02:19:29.581Z,-0.39
2023-02-22T02:22:48.390Z,0.06
2023-02-22T02:26:27.641Z,0.70
2023-02-22T02:30:13.766Z,0.42
2023-02-22T02:33:24.928Z,0.57
2023-02-22T02:36:36.173Z,0.78
2023-02-22T02:39:51.259Z,1.19
2023-02-22T02:43:04.089Z,0.95
2023-02-22T02:46:15.952Z,1.09
2023-02-22T02:49:29.805Z,1.04
2023-02-22T02:52:36.861Z,0.91
2023-02-22T02:55:43.134Z,1.23
2023-02-22T02:58:50.941Z,0.90
2023-02-22T03:02:23.948Z,0.60
2023-02-22T03:05:59.701Z,0.40
2023-02-22T03:09:13.892Z,-0.46
2023-02-22T03:12:33.183Z,-0.63
2023-02-22T03:15:51.490Z,-0.29
2023-02-22T03:19:04.918Z,0.56
2023-02-22T03:22:17.541Z,0.57
2023-02-22T03:25:31.616Z,0.50
2023-02-22T03:28:42.390Z,0.48
2023-02-22T03:31:54.587Z,0.49
2023-02-22T03:35:04.330Z,0.44
2023-02-22T03:38:14.836Z,-0.86
2023-02-22T03:41:25.334Z,-0.92
2023-02-22T03:44:38.121Z,-0.52
2023-02-22T03:47:50.436Z,-1.06
2023-02-22T03:50:58.604Z,-1.10
2023-02-22T03:54:07.206Z,-1.10
2023-02-22T03:57:17.937Z,-1.16
2023-02-22T04:00:26.192Z,-1.04
2023-02-22T04:03:32.630Z,-1.00
2023-02-22T04:06:38.728Z,-0.01
2023-02-22T04:09:46.899Z,-0.07
2023-02-22T04:12:53.173Z,0.49
2023-02-22T04:15:59.633Z,0.50
2023-02-22T04:19:06.427Z,-0.12
2023-02-22T04:22:13.051Z,-0.27
2023-02-22T04:25:21.382Z,0.23
2023-02-22T04:28:27.765Z,0.19
2023-02-22T04:31:34.208Z,0.07
2023-02-22T04:34:40.512Z,-0.48
2023-02-22T04:37:47.044Z,0.08
2023-02-22T04:40:55.771Z,0.24
2023-02-22T04:44:01.884Z,0.23
2023-02-22T04:47:08.514Z,0.20
2023-02-22T04:50:15.725Z,-0.76
2023-02-22T04:53:22.350Z,-0.95
2023-02-22T04:56:29.929Z,-0.82
2023-02-22T04:59:36.586Z,-0.72
2023-02-22T05:02:43.197Z,-0.78
2023-02-22T05:05:49.299Z,-0.84
2023-02-22T05:08:55.707Z,-0.65
2023-02-22T05:12:03.449Z,-0.55
2023-02-22T05:15:11.011Z,-0.27
2023-02-22T05:18:17.687Z,0.08
2023-02-22T05:21:24.182Z,-0.55
2023-02-22T05:24:30.481Z,0.13
2023-02-22T05:27:38.437Z,-0.28
2023-02-22T05:30:45.521Z,0.36
2023-02-22T05:33:51.812Z,0.51
2023-02-22T05:36:58.079Z,-0.31
2023-02-22T05:40:04.762Z,-0.67
2023-02-22T05:43:12.272Z,0.29
2023-02-22T05:46:18.619Z,1.03
2023-02-22T05:49:24.787Z,1.16
2023-02-22T05:52:31.328Z,1.23
2023-02-22T05:55:37.701Z,0.66
2023-02-22T05:58:45.402Z,0.33
2023-02-22T06:01:51.847Z,0.78
2023-02-22T06:04:58.354Z,0.66
2023-02-22T06:08:06.379Z,0.62
2023-02-22T06:11:12.869Z,1.29
2023-02-22T06:14:21.039Z,1.22
2023-02-22T06:17:27.594Z,0.88
2023-02-22T06:20:35.676Z,0.35
2023-02-22T06:23:41.944Z,1.63
2023-02-22T06:26:48.327Z,1.27
2023-02-22T06:29:56.000Z,1.48
2023-02-22T06:33:02.721Z,1.70
2023-02-22T06:36:10.753Z,2.36
2023-02-22T06:39:19.095Z,2.90
2023-02-22T06:42:25.742Z,3.43
2023-02-22T06:45:33.346Z,2.84
2023-02-22T06:48:40.516Z,2.79
2023-02-22T06:51:48.039Z,3.22
2023-02-22T06:54:54.743Z,3.33
2023-02-22T06:58:01.529Z,3.74
2023-02-22T07:01:09.150Z,4.10
2023-02-22T07:04:16.058Z,4.24
2023-02-22T07:07:25.330Z,4.52
2023-02-22T07:10:33.558Z,4.51
2023-02-22T07:13:39.795Z,4.95
2023-02-22T07:16:47.579Z,5.35
2023-02-22T07:19:54.300Z,5.54
2023-02-22T07:23:01.473Z,5.43
2023-02-22T07:26:07.830Z,5.56
2023-02-22T07:29:14.254Z,5.72
2023-02-22T07:32:22.139Z,6.66
2023-02-22T07:35:30.918Z,7.01
2023-02-22T07:38:37.213Z,7.00
2023-02-22T07:41:43.337Z,6.69
2023-02-22T07:44:49.417Z,6.78
2023-02-22T07:47:57.651Z,7.12
2023-02-22T07:51:03.809Z,7.40
2023-02-22T07:54:09.766Z,7.22
2023-02-22T07:57:17.013Z,7.52
2023-02-22T08:00:25.918Z,7.95
2023-02-22T08:03:36.832Z,7.99
2023-02-22T08:06:46.404Z,8.04
2023-02-22T08:09:52.860Z,8.58
2023-02-22T08:12:59.616Z,8.76
2023-02-22T08:16:06.469Z,9.24
2023-02-22T08:19:14.295Z,8.37
2023-02-22T08:22:22.041Z,8.83
2023-02-22T08:25:30.774Z,8.85
2023-02-22T08:28:37.550Z,9.36
2023-02-22T08:31:43.886Z,9.72
2023-02-22T08:34:51.669Z,9.67
2023-02-22T08:37:59.987Z,9.28
2023-02-22T08:41:07.049Z,9.66
2023-02-22T08:44:13.487Z,9.92
2023-02-22T08:47:19.913Z,10.00
2023-02-22T08:50:29.386Z,10.05
2023-02-22T08:53:35.798Z,10.93
2023-02-22T08:56:42.264Z,10.88
2023-02-22T08:59:48.510Z,10.88
2023-02-22T09:02:54.756Z,10.68
2023-02-22T09:06:02.412Z,11.48
2023-02-22T09:09:08.385Z,12.10
2023-02-22T09:12:14.862Z,11.64
2023-02-22T09:15:21.103Z,11.94
2023-02-22T09:18:39.134Z,12.04
2023-02-22T09:21:55.643Z,12.32
2023-02-22T09:25:11.231Z,12.87
2023-02-22T09:28:21.436Z,12.83
2023-02-22T09:31:28.070Z,13.44
2023-02-22T09:34:35.549Z,13.31
2023-02-22T09:37:45.703Z,13.96
2023-02-22T09:40:55.361Z,14.33
2023-02-22T09:44:17.833Z,14.25
2023-02-22T09:47:32.663Z,14.65
2023-02-22T09:50:43.921Z,14.93
2023-02-22T09:53:53.245Z,14.76
2023-02-22T09:57:03.676Z,14.74
2023-02-22T10:00:18.186Z,15.17
2023-02-22T10:03:29.936Z,15.72
2023-02-22T10:06:38.134Z,15.28
2023-02-22T10:09:48.729Z,16.46
2023-02-22T10:13:01.482Z,16.29
2023-02-22T10:16:17.010Z,16.21
2023-02-22T10:19:30.916Z,16.41
2023-02-22T10:22:46.603Z,16.35
2023-02-22T10:26:01.543Z,16.16
2023-02-22T10:29:16.563Z,16.88
2023-02-22T10:32:45.668Z,17.02
2023-02-22T10:35:53.911Z,16.81
2023-02-22T10:39:01.546Z,16.99
2023-02-22T10:42:10.293Z,16.95
2023-02-22T10:45:23.748Z,17.31
2023-02-22T10:48:32.990Z,17.75
2023-02-22T10:51:39.842Z,17.92
2023-02-22T10:54:52.003Z,18.21
2023-02-22T10:58:06.302Z,17.61
2023-02-22T11:01:26.374Z,17.81
2023-02-22T11:04:48.534Z,18.30
2023-02-22T11:08:16.068Z,17.92
2023-02-22T11:11:25.511Z,17.56
2023-02-22T11:14:33.214Z,18.17
2023-02-22T11:17:41.234Z,17.84
2023-02-22T11:20:47.580Z,18.28
2023-02-22T11:24:03.651Z,17.81
2023-02-22T11:27:10.378Z,18.18
2023-02-22T11:30:29.200Z,17.58
2023-02-22T11:33:36.334Z,18.86
2023-02-22T11:36:44.435Z,18.20
2023-02-22T11:40:07.509Z,19.02
2023-02-22T11:43:18.274Z,18.81
2023-02-22T11:46:29.280Z,18.92
2023-02-22T11:49:38.401Z,19.13
2023-02-22T11:52:51.968Z,18.60
2023-02-22T11:56:15.314Z,18.58
2023-02-22T11:59:32.567Z,19.16
2023-02-22T12:02:57.290Z,18.22
2023-02-22T12:06:20.330Z,18.17
2023-02-22T12:09:36.974Z,18.69
2023-02-22T12:12:55.696Z,18.27
2023-02-22T12:16:14.431Z,18.80
2023-02-22T12:19:33.232Z,18.28
2023-02-22T12:22:48.712Z,19.07
2023-02-22T12:26:01.590Z,19.35
2023-02-22T12:29:14.734Z,19.53
2023-02-22T12:32:30.040Z,19.95
2023-02-22T12:35:40.479Z,19.38
2023-02-22T12:38:53.254Z,19.27
2023-02-22T12:42:03.695Z,18.75
2023-02-22T12:45:17.006Z,18.82
2023-02-22T12:48:39.944Z,19.06
2023-02-22T12:51:53.820Z,18.90
2023-02-22T12:55:06.093Z,18.98
2023-02-22T12:58:23.265Z,18.85
2023-02-22T13:01:36.259Z,19.08
2023-02-22T13:04:42.753Z,19.00
2023-02-22T13:08:03.808Z,19.16
2023-02-22T13:11:21.410Z,19.49
2023-02-22T13:14:54.885Z,19.10
2023-02-22T13:18:12.043Z,19.04
2023-02-22T13:21:24.429Z,19.09
2023-02-22T13:24:40.756Z,19.04
2023-02-22T13:27:55.067Z,19.20
2023-02-22T13:31:21.345Z,19.01
2023-02-22T13:34:52.324Z,18.90
2023-02-22T13:38:25.358Z,18.98
2023-02-22T13:41:52.402Z,18.88
2023-02-22T13:45:35.257Z,19.44
2023-02-22T13:49:18.620Z,18.96
2023-02-22T13:52:27.786Z,18.87
2023-02-22T13:55:37.613Z,18.94
2023-02-22T13:59:04.470Z,19.07
2023-02-22T14:02:35.613Z,19.09
2023-02-22T14:05:51.177Z,19.73
2023-02-22T14:08:58.900Z,18.73
2023-02-22T14:12:05.926Z,19.19
2023-02-22T14:15:29.739Z,18.93
2023-02-22T14:18:39.135Z,19.09
2023-02-22T14:22:02.410Z,18.03
2023-02-22T14:25:32.642Z,17.87
2023-02-22T14:28:51.877Z,17.90
2023-02-22T14:32:05.201Z,18.31
2023-02-22T14:35:26.581Z,18.59
2023-02-22T14:38:35.372Z,18.80
2023-02-22T14:41:47.739Z,18.61
2023-02-22T14:45:02.720Z,18.73
2023-02-22T14:48:20.479Z,18.45
2023-02-22T14:51:29.793Z,18.38
2023-02-22T14:54:46.434Z,17.51
2023-02-22T14:58:01.856Z,17.67
2023-02-22T15:01:28.956Z,16.69
2023-02-22T15:04:39.130Z,16.27
2023-02-22T15:07:54.362Z,16.31
2023-02-22T15:11:02.399Z,15.74
2023-02-22T15:14:25.698Z,15.70
2023-02-22T15:17:32.149Z,15.51
2023-02-22T15:20:39.686Z,15.26
2023-02-22T15:23:49.086Z,15.02
2023-02-22T15:27:02.133Z,14.86
2023-02-22T15:30:18.387Z,14.81
2023-02-22T15:33:38.094Z,14.61
2023-02-22T15:36:47.742Z,14.62
2023-02-22T15:39:59.665Z,14.37
2023-02-22T15:43:09.542Z,14.09
2023-02-22T15:46:15.766Z,14.09
2023-02-22T15:49:24.716Z,14.01
2023-02-22T15:52:32.689Z,13.82
2023-02-22T15:55:43.842Z,13.75
2023-02-22T15:58:50.124Z,13.66
2023-02-22T16:01:57.080Z,13.47
2023-02-22T16:05:08.582Z,13.13
2023-02-22T16:08:19.225Z,12.85
2023-02-22T16:11:31.156Z,12.76
2023-02-22T16:14:45.067Z,12.35
2023-02-22T16:18:01.958Z,12.44
2023-02-22T16:21:13.132Z,12.02
2023-02-22T16:24:29.322Z,11.83
2023-02-22T16:27:47.496Z,11.65
2023-02-22T16:30:58.471Z,11.56
2023-02-22T16:34:06.936Z,11.93
2023-02-22T16:37:22.996Z,11.53
2023-02-22T16:40:34.686Z,11.52
2023-02-22T16:43:41.309Z,11.19
2023-02-22T16:46:47.940Z,11.10
2023-02-22T16:49:57.253Z,10.51
2023-02-22T16:53:04.025Z,10.67
2023-02-22T16:56:16.364Z,10.30
2023-02-22T16:59:23.160Z,10.16
2023-02-22T17:02:29.482Z,10.05
2023-02-22T17:05:37.767Z,9.86
2023-02-22T17:08:44.348Z,9.52
2023-02-22T17:11:53.829Z,9.76
2023-02-22T17:15:00.207Z,9.41
2023-02-22T17:18:17.559Z,9.44
2023-02-22T17:21:23.708Z,9.32
2023-02-22T17:24:29.899Z,9.19
2023-02-22T17:27:37.652Z,9.31
2023-02-22T17:30:45.528Z,9.26
2023-02-22T17:33:52.612Z,9.19
2023-02-22T17:36:59.222Z,8.88
2023-02-22T17:40:05.836Z,8.87
2023-02-22T17:43:13.799Z,8.46
2023-02-22T17:46:20.654Z,8.42
2023-02-22T17:49:26.745Z,8.56
2023-02-22T17:52:32.874Z,8.48
2023-02-22T17:55:40.776Z,8.33
2023-02-22T17:58:50.407Z,9.06
2023-02-22T18:01:57.052Z,9.05
2023-02-22T18:05:03.116Z,7.40
2023-02-22T18:08:09.280Z,7.81
2023-02-22T18:11:15.855Z,8.32
2023-02-22T18:14:24.152Z,8.13
2023-02-22T18:17:30.814Z,7.82
2023-02-22T18:20:39.340Z,7.86
2023-02-22T18:23:45.949Z,7.62
2023-02-22T18:26:52.596Z,7.22
2023-02-22T18:30:00.443Z,7.19
2023-02-22T18:33:07.242Z,6.82
2023-02-22T18:36:14.342Z,7.01
2023-02-22T18:39:20.786Z,7.14
2023-02-22T18:42:28.470Z,7.23
2023-02-22T18:45:37.311Z,7.02
2023-02-22T18:48:44.022Z,6.88
2023-02-22T18:51:50.145Z,7.06
2023-02-22T18:54:56.569Z,6.99
2023-02-22T18:58:04.834Z,6.90
2023-02-22T19:01:17.868Z,6.18
2023-02-22T19:04:25.225Z,5.77
2023-02-22T19:07:32.889Z,5.88
2023-02-22T19:10:39.614Z,5.66
2023-02-22T19:13:46.803Z,6.06
2023-02-22T19:16:57.044Z,6.08
2023-02-22T19:20:05.565Z,5.88
2023-02-22T19:23:12.568Z,5.91
2023-02-22T19:26:20.643Z,5.59
2023-02-22T19:29:31.301Z,5.60
2023-02-22T19:32:40.787Z,5.28
2023-02-22T19:35:48.362Z,5.05
2023-02-22T19:38:54.654Z,5.39
2023-02-22T19:42:01.661Z,5.70
2023-02-22T19:45:08.500Z,5.53
2023-02-22T19:48:16.481Z,5.41
2023-02-22T19:51:25.733Z,5.48
2023-02-22T19:54:32.268Z,5.02
2023-02-22T19:57:38.979Z,5.01
2023-02-22T20:00:45.221Z,4.87
2023-02-22T20:03:54.519Z,4.50
2023-02-22T20:07:02.198Z,4.24
2023-02-22T20:10:08.974Z,4.32
2023-02-22T20:13:17.213Z,4.18
2023-02-22T20:16:24.014Z,4.07
2023-02-22T20:19:31.745Z,4.00
2023-02-22T20:22:38.296Z,4.13
2023-02-22T20:25:52.313Z,4.21
2023-02-22T20:29:04.052Z,4.26
2023-02-22T20:32:15.505Z,4.30
2023-02-22T20:35:23.285Z,4.46
2023-02-22T20:38:29.546Z,4.08
2023-02-22T20:41:37.136Z,4.57
2023-02-22T20:44:45.220Z,4.50
2023-02-22T20:47:52.134Z,4.24
2023-02-22T20:51:06.681Z,4.23
2023-02-22T20:54:14.242Z,4.01
2023-02-22T20:57:20.711Z,3.86
2023-02-22T21:00:27.061Z,3.52
2023-02-22T21:03:34.166Z,3.31
2023-02-22T21:06:42.317Z,3.81
2023-02-22T21:09:48.905Z,3.78
2023-02-22T21:12:56.999Z,3.57
2023-02-22T21:16:05.294Z,3.86
2023-02-22T21:19:12.159Z,3.28
2023-02-22T21:22:20.288Z,3.56
2023-02-22T21:25:29.719Z,3.85
2023-02-22T21:28:53.140Z,3.26
2023-02-22T21:32:00.067Z,2.81
2023-02-22T21:35:07.360Z,3.07
2023-02-22T21:38:15.387Z,2.99
2023-02-22T21:41:23.717Z,2.96
2023-02-22T21:44:30.400Z,2.83
2023-02-22T21:47:39.086Z,2.55
2023-02-22T21:50:45.644Z,2.52
2023-02-22T21:53:55.188Z,2.35
2023-02-22T21:57:01.562Z,2.73
2023-02-22T22:00:17.425Z,2.99
2023-02-22T22:03:24.610Z,2.82
2023-02-22T22:06:34.459Z,2.83
2023-02-22T22:09:43.305Z,3.18
2023-02-22T22:12:50.629Z,2.81
2023-02-22T22:15:57.984Z,2.60
2023-02-22T22:19:04.508Z,2.19
2023-02-22T22:22:10.905Z,2.20
2023-02-22T22:25:19.176Z,2.74
2023-02-22T22:28:27.097Z,2.63
2023-02-22T22:31:33.623Z,2.93
2023-02-22T22:34:40.532Z,2.16
2023-02-22T22:37:51.298Z,1.65
2023-02-22T22:41:02.003Z,1.53
2023-02-22T22:44:09.982Z,1.42
2023-02-22T22:47:16.038Z,1.52
2023-02-22T22:50:26.582Z,1.95
2023-02-22T22:53:33.572Z,2.19
2023-02-22T22:56:41.535Z,2.41
2023-02-22T22:59:50.026Z,2.35
2023-02-22T23:02:57.416Z,1.82
2023-02-22T23:06:04.949Z,1.14
2023-02-22T23:09:18.838Z,1.07
2023-02-22T23:12:31.635Z,1.44
2023-02-22T23:15:38.019Z,1.64
2023-02-22T23:18:44.596Z,1.57
2023-02-22T23:21:52.286Z,2.03
2023-02-22T23:25:00.485Z,1.88
2023-02-22T23:28:14.786Z,2.55
2023-02-22T23:31:21.903Z,2.27
2023-02-22T23:34:29.142Z,2.34
2023-02-22T23:37:35.639Z,2.16
2023-02-22T23:40:42.115Z,1.60
2023-02-22T23:43:50.809Z,1.77
2023-02-22T23:46:57.049Z,1.46
2023-02-22T23:50:06.712Z,1.08
2023-02-22T23:53:15.352Z,0.79
2023-02-22T23:56:22.195Z,0.38
2023-02-22T23:59:31.227Z,0.48
